Time;durP1;ratioP1;P1;durP2;ratioP2;P2;SDS_P1;SDS_P2;PMS_P1;PMS_P2;Temp;Humidity;BMP_temperature;BMP_pressure;BME280_temperature;BME280_humidity;BME280_pressure;Samples;Min_cycle;Max_cycle;Signal;HPM_P1;HPM_P2
2022/06/11 00:00:04;;;;;;;;;7.00;7.00;;;;;21.19;56.84;101672.44;5111842;27;45172;-68
2022/06/11 00:02:29;;;;;;;;;4.00;4.00;;;;;21.07;56.82;101663.38;5113625;27;45138;-65
2022/06/11 00:04:54;;;;;;;;;9.00;6.00;;;;;21.08;56.80;101678.75;5111211;27;45352;-69
2022/06/11 00:07:23;;;;;;;;;5.00;5.00;;;;;21.14;56.70;101686.91;5114088;27;45259;-69
2022/06/11 00:09:50;;;;;;;;;2.67;2.67;;;;;21.08;56.83;101677.88;5113280;27;45029;-67
2022/06/11 00:12:15;;;;;;;;;4.00;4.00;;;;;21.01;56.92;101668.81;5113205;27;45120;-69
2022/06/11 00:14:43;;;;;;;;;4.00;4.00;;;;;21.02;57.29;101676.09;5112109;27;45082;-69
2022/06/11 00:17:12;;;;;;;;;5.00;3.00;;;;;20.98;57.46;101680.59;5113076;27;45203;-67
2022/06/11 00:19:38;;;;;;;;;6.00;5.00;;;;;20.96;57.38;101678.81;5112966;27;45061;-69
2022/06/11 00:22:04;;;;;;;;;7.33;6.00;;;;;20.97;57.40;101672.47;5110539;27;46006;-69
2022/06/11 00:24:30;;;;;;;;;5.00;5.00;;;;;20.92;57.53;101666.13;5132788;27;45808;-66
2022/06/11 00:26:58;;;;;;;;;4.67;4.67;;;;;20.92;57.84;101676.97;5130774;27;44890;-71
2022/06/11 00:29:26;;;;;;;;;4.00;4.00;;;;;20.92;57.77;101676.97;5112577;27;45068;-68
2022/06/11 00:31:52;;;;;;;;;6.00;5.00;;;;;20.95;57.63;101679.69;5113815;27;45222;-67
2022/06/11 00:34:18;;;;;;;;;9.33;9.33;;;;;20.99;57.72;101678.81;5115659;27;45318;-68
2022/06/11 00:36:44;;;;;;;;;7.33;7.33;;;;;20.99;57.65;101679.69;5115885;27;45026;-67
2022/06/11 00:39:12;;;;;;;;;5.33;5.33;;;;;20.95;57.38;101674.28;5116756;27;45117;-67
2022/06/11 00:41:41;;;;;;;;;6.00;5.67;;;;;20.97;57.94;101678.81;5115955;27;45095;-67
2022/06/11 00:44:07;;;;;;;;;4.00;4.00;;;;;20.97;57.63;101678.81;5118157;27;45060;-67
2022/06/11 00:46:56;;;;;;;;;8.33;6.00;;;;;20.98;57.65;101677.88;5133178;27;45012;-66
2022/06/11 00:49:43;;;;;;;;;5.33;5.33;;;;;21.01;57.46;101668.81;5116244;27;45130;-64
2022/06/11 00:52:32;;;;;;;;;9.00;6.00;;;;;21.02;57.82;101670.66;5130049;27;45058;-66
2022/06/11 00:55:10;;;;;;;;;7.67;6.00;;;;;21.02;57.89;101677.88;5132070;27;46573;-67
2022/06/11 00:57:47;;;;;;;;;5.00;5.00;;;;;20.91;58.07;101667.03;5126007;27;45335;-68
2022/06/11 01:00:17;;;;;;;;;7.33;6.33;;;;;21.01;57.61;101678.81;5112102;27;45384;-68
2022/06/11 01:02:44;;;;;;;;;6.00;5.00;;;;;20.92;57.76;101661.63;5114437;27;45025;-67
2022/06/11 01:05:15;;;;;;;;;7.33;5.33;;;;;21.03;57.43;101674.25;5113244;27;45060;-68
2022/06/11 01:07:50;;;;;;;;;5.00;5.00;;;;;21.04;57.75;101681.53;5114284;27;45483;-66
2022/06/11 01:10:42;;;;;;;;;8.00;5.00;;;;;21.04;57.57;101670.66;5112389;27;44996;-66
2022/06/11 01:13:16;;;;;;;;;5.33;4.33;;;;;21.03;57.47;101682.41;5113899;27;45146;-64
2022/06/11 01:15:52;;;;;;;;;9.00;9.00;;;;;21.02;57.82;101672.44;5111186;27;45113;-67
2022/06/11 01:18:38;;;;;;;;;5.00;5.00;;;;;20.85;57.43;101646.22;5118995;27;45217;-65
2022/06/11 01:21:32;;;;;;;;;5.00;4.00;;;;;20.97;57.40;101662.50;5111711;27;44989;-65
2022/06/11 01:24:33;;;;;;;;;5.00;5.00;;;;;20.97;57.74;101673.38;5120231;27;45111;-67
2022/06/11 01:27:36;;;;;;;;;8.33;8.33;;;;;20.94;57.76;101672.47;5122336;27;45582;-69
2022/06/11 01:30:33;;;;;;;;;6.67;5.00;;;;;20.93;57.67;101676.97;5107354;27;45259;-67
2022/06/11 01:33:13;;;;;;;;;7.00;7.00;;;;;20.74;57.84;101654.41;5111635;27;45561;-69
2022/06/11 01:36:00;;;;;;;;;5.00;5.00;;;;;20.89;57.93;101669.75;5126736;27;45353;-64
2022/06/11 01:38:32;;;;;;;;;5.67;5.67;;;;;20.53;57.91;101610.94;5132669;27;45537;-65
2022/06/11 01:41:22;;;;;;;;;5.67;5.67;;;;;20.83;57.97;101675.19;5113927;27;45289;-68
2022/06/11 01:43:49;;;;;;;;;5.00;5.00;;;;;20.80;57.95;101681.56;5118014;27;44968;-67
2022/06/11 01:46:40;;;;;;;;;6.00;6.00;;;;;20.77;58.30;101675.19;5104520;27;45453;-66
2022/06/11 01:49:19;;;;;;;;;8.67;6.33;;;;;20.79;58.22;101673.41;5114140;27;45697;-68
2022/06/11 01:51:58;;;;;;;;;9.67;5.67;;;;;20.80;58.20;101673.41;5116800;27;45438;-68
2022/06/11 01:54:26;;;;;;;;;8.00;8.00;;;;;20.80;58.50;101675.19;5116750;27;45408;-64
2022/06/11 01:57:32;;;;;;;;;4.00;4.00;;;;;20.79;58.11;101674.31;5111940;27;44858;-66
2022/06/11 02:00:09;;;;;;;;;9.33;7.00;;;;;20.78;58.40;101677.00;5096597;27;45351;-66
2022/06/11 02:03:13;;;;;;;;;8.33;8.33;;;;;20.76;58.45;101684.28;5091935;27;46026;-67
2022/06/11 02:06:00;;;;;;;;;5.33;5.33;;;;;20.76;58.55;101679.72;5109167;27;45267;-65
2022/06/11 02:08:38;;;;;;;;;6.33;6.33;;;;;20.75;58.33;101683.34;5111952;27;45505;-66
2022/06/11 02:11:22;;;;;;;;;8.67;7.00;;;;;20.76;58.48;101687.88;5116467;27;46406;-65
2022/06/11 02:13:47;;;;;;;;;6.00;4.33;;;;;20.76;58.24;101690.59;5098028;27;45530;-68
2022/06/11 02:16:22;;;;;;;;;9.33;7.67;;;;;20.71;58.28;101686.97;5096791;27;45370;-65
2022/06/11 02:18:50;;;;;;;;;7.67;7.67;;;;;20.55;58.44;101656.16;5097031;27;45523;-65
2022/06/11 02:21:20;;;;;;;;;3.00;3.00;;;;;20.52;58.45;101656.16;5096658;27;45496;-69
2022/06/11 02:23:51;;;;;;;;;6.67;6.00;;;;;20.54;58.73;101664.31;5078176;27;45447;-68
2022/06/11 02:26:22;;;;;;;;;6.67;6.67;;;;;20.65;58.51;101678.81;5096431;27;45482;-67
2022/06/11 02:28:50;;;;;;;;;5.67;5.67;;;;;20.67;58.60;101690.59;5110617;27;45463;-67
2022/06/11 02:31:23;;;;;;;;;9.00;8.67;;;;;20.68;58.60;101686.09;5108410;27;45490;-66
2022/06/11 02:33:49;;;;;;;;;4.00;4.00;;;;;20.67;58.48;101685.16;5110113;27;46615;-69
2022/06/11 02:36:27;;;;;;;;;5.00;5.00;;;;;20.65;58.71;101686.09;5119414;27;45293;-64
2022/06/11 02:38:55;;;;;;;;;3.33;3.33;;;;;20.59;58.95;101689.66;5096444;27;45495;-68
2022/06/11 02:41:24;;;;;;;;;5.67;5.67;;;;;20.52;58.81;101680.59;5096234;27;45682;-66
2022/06/11 02:43:50;;;;;;;;;9.33;6.00;;;;;20.58;58.88;101687.84;5096125;27;45441;-68
2022/06/11 02:49:00;;;;;;;;;3.67;2.33;;;;;20.55;58.93;101696.00;5096144;27;44872;-64
2022/06/11 02:51:28;;;;;;;;;6.00;5.00;;;;;20.54;58.92;101688.75;5095876;27;46100;-65
2022/06/11 02:53:54;;;;;;;;;7.00;5.33;;;;;20.52;59.21;101696.88;5095398;27;45358;-66
2022/06/11 02:56:23;;;;;;;;;5.00;5.00;;;;;20.50;58.88;101700.53;5096194;27;45407;-67
2022/06/11 02:58:48;;;;;;;;;5.67;4.00;;;;;20.51;59.05;101694.16;5096559;27;45425;-65
2022/06/11 03:01:15;;;;;;;;;8.67;7.00;;;;;20.47;59.32;101693.28;5095301;27;45512;-64
2022/06/11 03:03:40;;;;;;;;;3.67;3.67;;;;;20.41;59.00;101685.16;5095979;27;45293;-66
2022/06/11 03:06:06;;;;;;;;;14.00;14.00;;;;;20.44;59.37;101705.03;5094996;27;45286;-66
2022/06/11 03:08:32;;;;;;;;;5.67;5.67;;;;;20.29;59.52;101677.88;5098214;27;45499;-65
2022/06/11 03:10:58;;;;;;;;;8.00;5.00;;;;;20.42;59.45;101705.94;5099344;27;45499;-65
2022/06/11 03:13:25;;;;;;;;;4.33;4.33;;;;;20.37;59.84;101705.94;5095821;27;45489;-67
2022/06/11 03:15:51;;;;;;;;;6.00;5.33;;;;;20.31;59.81;101711.38;5095986;27;45472;-65
2022/06/11 03:18:17;;;;;;;;;5.00;5.00;;;;;20.32;59.52;101713.16;5095695;27;45406;-70
2022/06/11 03:20:43;;;;;;;;;9.67;8.67;;;;;20.32;59.58;101709.56;5095176;27;45325;-65
2022/06/11 03:23:09;;;;;;;;;17.33;14.33;;;;;20.21;59.67;101686.03;5096362;27;45941;-68
2022/06/11 03:25:36;;;;;;;;;6.00;6.00;;;;;20.28;59.75;101705.94;5101757;27;45387;-67
2022/06/11 03:28:18;;;;;;;;;4.00;4.00;;;;;20.21;60.22;101707.72;5095958;27;45365;-65
2022/06/11 03:30:44;;;;;;;;;5.33;3.33;;;;;20.17;60.52;101710.44;5095494;27;45498;-67
2022/06/11 03:33:10;;;;;;;;;5.00;4.00;;;;;20.18;60.34;101706.81;5095520;27;45663;-67
2022/06/11 03:35:35;;;;;;;;;5.00;5.00;;;;;20.17;60.34;101715.84;5095328;27;45489;-66
2022/06/11 03:38:02;;;;;;;;;5.00;5.00;;;;;20.18;60.43;101714.97;5095908;27;45500;-64
2022/06/11 03:40:28;;;;;;;;;5.00;5.00;;;;;20.09;60.83;101712.22;5096641;27;46326;-68
2022/06/11 03:42:53;;;;;;;;;4.00;4.00;;;;;20.05;60.86;101711.31;5095543;27;45593;-64
2022/06/11 03:45:19;;;;;;;;;5.67;5.00;;;;;19.94;61.18;101713.97;5095462;27;45446;-64
2022/06/11 03:47:45;;;;;;;;;8.33;5.33;;;;;19.96;61.43;101730.25;5113953;27;45331;-65
2022/06/11 03:50:24;;;;;;;;;8.67;6.00;;;;;19.97;61.26;101745.66;5114605;27;47001;-63
2022/06/11 03:52:49;;;;;;;;;8.33;5.00;;;;;19.92;61.35;101739.31;5115039;27;45282;-67
2022/06/11 03:55:16;;;;;;;;;6.67;4.00;;;;;19.91;61.40;101740.19;5109230;27;45579;-68
2022/06/11 03:57:41;;;;;;;;;7.67;7.00;;;;;19.86;61.53;101737.47;5099820;27;45630;-65
2022/06/11 04:00:11;;;;;;;;;11.00;7.67;;;;;19.90;61.75;101744.72;5094571;27;45397;-68
2022/06/11 04:02:36;;;;;;;;;5.33;5.00;;;;;19.90;61.77;101752.84;5095341;27;45467;-67
2022/06/11 04:05:04;;;;;;;;;9.67;6.00;;;;;19.54;61.60;101692.13;5094875;27;45579;-68
2022/06/11 04:07:31;;;;;;;;;8.33;7.00;;;;;19.85;61.81;101741.97;5097861;27;45459;-68
2022/06/11 04:09:57;;;;;;;;;8.67;5.33;;;;;19.91;61.66;101761.88;5098647;27;45503;-66
2022/06/11 04:12:22;;;;;;;;;6.67;5.33;;;;;19.91;61.91;101762.78;5098548;27;45894;-69
2022/06/11 04:14:49;;;;;;;;;4.67;4.67;;;;;19.92;61.83;101763.72;5098897;27;45460;-66
2022/06/11 04:17:24;;;;;;;;;8.33;6.00;;;;;19.91;61.86;101773.63;5102018;27;45361;-64
2022/06/11 04:19:51;;;;;;;;;5.00;5.00;;;;;19.91;61.70;101773.63;5111004;27;46288;-69
2022/06/11 04:22:17;;;;;;;;;4.67;4.67;;;;;19.89;61.93;101773.63;5098690;27;45594;-65
2022/06/11 04:24:43;;;;;;;;;5.00;5.00;;;;;19.87;62.08;101774.53;5098531;27;45291;-63
2022/06/11 04:27:11;;;;;;;;;4.00;4.00;;;;;19.84;62.23;101777.22;5098686;27;45458;-64
2022/06/11 04:29:42;;;;;;;;;8.67;5.00;;;;;19.30;62.17;101691.09;5100929;27;46894;-65
2022/06/11 04:32:09;;;;;;;;;8.67;7.33;;;;;19.84;62.39;101778.13;5098044;27;45499;-66
2022/06/11 04:34:35;;;;;;;;;11.33;10.00;;;;;19.78;62.34;101771.78;5098224;27;45323;-68
2022/06/11 04:37:01;;;;;;;;;9.67;7.33;;;;;19.77;62.57;101792.56;5098607;27;45342;-69
2022/06/11 04:39:28;;;;;;;;;6.00;6.00;;;;;19.78;62.49;101788.97;5097854;27;46658;-67
2022/06/11 04:41:55;;;;;;;;;6.00;5.33;;;;;19.81;62.46;101791.66;5112970;27;45863;-68
2022/06/11 04:44:22;;;;;;;;;7.33;6.00;;;;;19.82;62.45;101798.91;5118192;27;45567;-67
2022/06/11 04:46:47;;;;;;;;;9.00;7.00;;;;;19.81;62.48;101793.47;5118326;27;45744;-68
2022/06/11 04:49:13;;;;;;;;;6.00;6.00;;;;;19.83;62.46;101792.59;5117387;27;46112;-66
2022/06/11 04:51:39;;;;;;;;;8.00;6.00;;;;;19.78;62.48;101788.03;5117751;27;45396;-66
2022/06/11 04:54:05;;;;;;;;;8.67;6.00;;;;;19.87;62.58;101798.94;5113774;27;45321;-68
2022/06/11 04:56:31;;;;;;;;;11.00;7.00;;;;;19.85;62.85;101796.22;5098370;27;45579;-67
2022/06/11 04:58:58;;;;;;;;;5.00;5.00;;;;;19.84;62.78;101798.94;5099952;27;46188;-68
2022/06/11 05:01:25;;;;;;;;;6.33;6.33;;;;;19.65;63.00;101777.13;5111197;27;45421;-66
2022/06/11 05:03:51;;;;;;;;;6.67;6.67;;;;;19.81;62.99;101801.63;5117732;27;45519;-67
2022/06/11 05:06:20;;;;;;;;;5.33;4.67;;;;;19.42;62.83;101732.69;5106878;27;45594;-69
2022/06/11 05:08:45;;;;;;;;;5.67;5.67;;;;;19.85;63.04;101806.19;5104510;27;46994;-67
2022/06/11 05:11:10;;;;;;;;;7.33;6.33;;;;;19.83;63.10;101797.09;5097606;27;45312;-65
2022/06/11 05:13:36;;;;;;;;;9.33;6.00;;;;;19.86;63.16;101806.19;5097876;27;45691;-64
2022/06/11 05:16:02;;;;;;;;;7.00;5.67;;;;;19.88;62.83;101796.25;5097811;27;45400;-66
2022/06/11 05:18:30;;;;;;;;;8.33;6.00;;;;;19.86;63.01;101794.41;5096491;27;45805;-64
2022/06/11 05:20:55;;;;;;;;;9.00;7.00;;;;;19.72;62.94;101769.91;5098285;27;45676;-66
2022/06/11 05:23:20;;;;;;;;;11.33;8.67;;;;;19.93;63.31;101803.47;5102060;27;45522;-68
2022/06/11 05:25:46;;;;;;;;;8.33;8.33;;;;;19.93;62.76;101801.69;5117661;27;45441;-63
2022/06/11 05:28:19;;;;;;;;;11.33;7.00;;;;;19.96;62.93;101807.09;5117096;27;45323;-63
2022/06/11 05:30:45;;;;;;;;;7.00;6.67;;;;;19.98;62.91;101802.63;5116948;27;45358;-64
2022/06/11 05:33:11;;;;;;;;;8.33;8.33;;;;;19.87;62.82;101783.56;5117091;27;45501;-66
2022/06/11 05:35:37;;;;;;;;;7.33;5.67;;;;;19.99;62.90;101799.00;5117182;27;45294;-66
2022/06/11 05:38:07;;;;;;;;;7.00;7.00;;;;;19.98;62.93;101796.25;5107306;27;45483;-70
2022/06/11 05:40:38;;;;;;;;;7.00;5.00;;;;;19.97;63.16;101798.06;5097481;27;45390;-68
2022/06/11 05:43:04;;;;;;;;;8.33;6.33;;;;;20.00;63.08;101800.81;5097325;27;45443;-66
2022/06/11 05:45:33;;;;;;;;;5.00;5.00;;;;;20.02;62.94;101790.88;5097384;27;45344;-65
2022/06/11 05:47:59;;;;;;;;;6.00;6.00;;;;;20.06;63.01;101805.34;5098894;27;45570;-67
2022/06/11 05:50:29;;;;;;;;;7.00;7.00;;;;;19.89;62.88;101762.78;5095361;27;45366;-66
2022/06/11 05:52:56;;;;;;;;;9.00;8.67;;;;;20.13;62.71;101800.84;5097214;27;45316;-65
2022/06/11 05:55:25;;;;;;;;;8.67;7.67;;;;;20.15;62.62;101797.25;5096778;27;45743;-67
2022/06/11 05:57:53;;;;;;;;;10.67;9.00;;;;;20.17;62.69;101808.09;5100015;27;46325;-66
2022/06/11 06:00:22;;;;;;;;;9.67;8.00;;;;;20.17;62.71;101805.41;5096631;27;45400;-65
2022/06/11 06:02:47;;;;;;;;;18.33;17.00;;;;;20.23;62.79;101808.13;5096597;27;45400;-67
2022/06/11 06:05:18;;;;;;;;;11.00;9.00;;;;;20.15;62.66;101796.34;5096637;27;45385;-65
2022/06/11 06:07:43;;;;;;;;;10.00;9.33;;;;;20.28;62.62;101814.50;5096013;27;45392;-69
2022/06/11 06:10:09;;;;;;;;;8.67;8.33;;;;;20.32;62.72;101810.88;5095946;27;45355;-68
2022/06/11 06:12:36;;;;;;;;;10.00;10.00;;;;;20.40;63.05;101817.22;5102080;27;45706;-69
2022/06/11 06:15:07;;;;;;;;;10.67;10.67;;;;;20.41;62.45;101796.44;5096769;27;45395;-69
2022/06/11 06:17:32;;;;;;;;;13.00;9.00;;;;;20.49;62.26;101793.72;5095825;27;46669;-67
2022/06/11 06:19:58;;;;;;;;;17.67;13.33;;;;;20.65;61.92;101808.28;5077321;27;45511;-64
2022/06/11 06:22:24;;;;;;;;;10.33;9.00;;;;;20.59;61.51;101787.38;5105372;27;45620;-67
2022/06/11 06:24:49;;;;;;;;;6.33;6.33;;;;;20.74;61.41;101805.56;5100278;27;45402;-65
2022/06/11 06:27:14;;;;;;;;;13.75;13.50;;;;;20.83;61.41;101812.81;5093286;27;46984;-69
2022/06/11 06:29:40;;;;;;;;;11.00;11.00;;;;;20.87;61.42;101810.13;5100117;27;45369;-70
2022/06/11 06:32:05;;;;;;;;;8.33;7.33;;;;;20.90;60.74;101814.63;5102462;27;45664;-68
2022/06/11 06:34:31;;;;;;;;;4.00;2.33;;;;;20.86;60.27;101815.53;5099033;27;45286;-68
2022/06/11 06:36:56;;;;;;;;;8.33;8.33;;;;;20.85;60.42;101819.16;5099687;27;45473;-69
2022/06/11 06:39:21;;;;;;;;;8.00;8.00;;;;;20.87;60.24;101814.63;5084149;27;45445;-68
2022/06/11 06:41:47;;;;;;;;;9.33;7.00;;;;;20.91;59.65;101809.19;5101939;27;45403;-68
2022/06/11 06:44:14;;;;;;;;;5.00;5.00;;;;;20.99;59.74;101815.53;5099937;27;45465;-68
2022/06/11 06:46:40;;;;;;;;;6.67;6.67;;;;;21.06;59.86;101821.88;5101691;27;45444;-69
2022/06/11 06:49:05;;;;;;;;;7.33;5.67;;;;;21.05;59.97;101806.50;5102496;27;45460;-66
2022/06/11 06:51:31;;;;;;;;;7.00;7.00;;;;;21.14;59.39;101813.75;5099392;27;45411;-64
2022/06/11 06:53:57;;;;;;;;;10.00;8.00;;;;;21.24;59.53;101823.69;5105327;27;45694;-67
2022/06/11 06:56:26;;;;;;;;;6.33;6.33;;;;;21.32;59.09;101820.97;5101886;27;45412;-68
2022/06/11 06:58:52;;;;;;;;;6.67;6.67;;;;;21.34;58.74;101809.19;5101903;27;45527;-69
2022/06/11 07:01:17;;;;;;;;;6.00;6.00;;;;;21.49;57.85;101820.97;5098672;27;45494;-66
2022/06/11 07:03:42;;;;;;;;;10.67;9.67;;;;;21.58;57.74;101815.53;5098643;27;45372;-69
2022/06/11 07:06:08;;;;;;;;;8.67;7.00;;;;;21.63;57.65;101808.28;5100920;27;50408;-68
2022/06/11 07:08:33;;;;;;;;;9.67;7.00;;;;;21.75;57.24;101825.47;5104528;27;45475;-66
2022/06/11 07:10:59;;;;;;;;;2.67;2.00;;;;;21.78;56.96;101820.91;5104690;27;45388;-64
2022/06/11 07:13:24;;;;;;;;;11.00;9.67;;;;;21.81;56.96;101812.75;5107601;27;45377;-64
2022/06/11 07:15:54;;;;;;;;;10.00;8.33;;;;;21.95;56.30;101822.69;5106989;27;46106;-65
2022/06/11 07:18:50;;;;;;;;;3.67;3.33;;;;;21.91;56.01;101821.78;5105025;27;45425;-66
2022/06/11 07:21:21;;;;;;;;;10.00;7.33;;;;;22.02;56.34;101827.19;5097077;27;46654;-68
2022/06/11 07:23:53;;;;;;;;;7.33;5.00;;;;;22.08;56.29;101825.34;5101476;27;45349;-69
2022/06/11 07:26:28;;;;;;;;;7.00;7.00;;;;;22.18;55.97;101820.75;5101401;27;45604;-67
2022/06/11 07:29:15;;;;;;;;;7.00;4.00;;;;;22.24;55.13;101823.47;5098571;27;45464;-65
2022/06/11 07:31:43;;;;;;;;;4.33;3.33;;;;;22.26;55.09;101818.00;5082183;27;45396;-65
2022/06/11 07:34:08;;;;;;;;;7.33;7.33;;;;;22.35;55.05;101825.25;5083199;27;46630;-66
2022/06/11 07:36:34;;;;;;;;;10.33;6.00;;;;;22.43;54.93;101820.66;5078505;27;46743;-66
2022/06/11 07:38:59;;;;;;;;;9.67;6.33;;;;;22.50;54.56;101818.81;5081380;27;45849;-68
2022/06/11 07:41:25;;;;;;;;;9.33;6.33;;;;;22.55;54.50;101820.56;5078442;27;45451;-67
2022/06/11 07:43:50;;;;;;;;;6.00;6.00;;;;;22.62;54.21;101825.09;5080434;27;45618;-68
2022/06/11 07:46:16;;;;;;;;;28.75;27.50;;;;;22.65;54.55;101815.97;5078033;27;46117;-64
2022/06/11 07:48:41;;;;;;;;;7.00;6.67;;;;;22.75;54.03;101814.09;5081664;27;45279;-66
2022/06/11 07:51:07;;;;;;;;;6.33;5.67;;;;;22.67;53.74;101786.00;5077840;27;45472;-66
2022/06/11 07:53:33;;;;;;;;;7.00;6.00;;;;;22.99;53.73;101822.09;5078225;27;45646;-65
2022/06/11 07:55:59;;;;;;;;;9.00;7.67;;;;;23.16;52.97;101824.72;5084840;27;46239;-68
2022/06/11 07:58:28;;;;;;;;;7.00;6.00;;;;;22.94;52.33;101772.16;5097537;27;45509;-68
2022/06/11 08:00:54;;;;;;;;;7.67;7.67;;;;;23.22;52.22;101821.03;5078543;27;45342;-66
2022/06/11 08:03:21;;;;;;;;;8.00;7.00;;;;;23.22;52.09;101821.03;5080040;27;45481;-68
2022/06/11 08:05:48;;;;;;;;;6.67;4.33;;;;;23.11;51.63;101801.13;5078199;27;45680;-71
2022/06/11 08:08:15;;;;;;;;;7.00;6.00;;;;;23.33;51.67;101827.28;5081273;27;45584;-69
2022/06/11 08:10:42;;;;;;;;;4.00;4.00;;;;;23.29;50.90;101805.53;5089557;27;45938;-68
2022/06/11 08:13:09;;;;;;;;;6.00;6.00;;;;;23.34;51.17;101817.28;5081911;27;45696;-68
2022/06/11 08:15:35;;;;;;;;;9.00;9.00;;;;;23.40;51.47;101822.69;5081613;27;46224;-62
2022/06/11 08:18:01;;;;;;;;;5.67;4.33;;;;;23.41;51.31;101820.84;5083855;27;45452;-68
2022/06/11 08:20:30;;;;;;;;;6.00;5.00;;;;;23.28;51.02;101795.50;5082568;27;45402;-68
2022/06/11 08:22:56;;;;;;;;;8.33;6.67;;;;;23.39;50.65;101818.13;5085187;27;45475;-70
2022/06/11 08:25:23;;;;;;;;;7.00;5.33;;;;;23.46;50.85;101821.72;5081020;27;45429;-67
2022/06/11 08:27:49;;;;;;;;;5.00;5.00;;;;;23.47;51.06;101829.88;5077553;27;45406;-69
2022/06/11 08:30:22;;;;;;;;;4.33;3.33;;;;;23.50;50.62;101826.22;5079459;27;45781;-70
2022/06/11 08:32:48;;;;;;;;;16.00;12.67;;;;;23.51;50.87;101819.84;5099517;27;45298;-66
2022/06/11 08:35:15;;;;;;;;;9.67;9.67;;;;;23.55;50.88;101825.25;5101026;27;46299;-66
2022/06/11 08:37:41;;;;;;;;;17.33;16.33;;;;;23.59;50.32;101817.03;5099828;27;45424;-68
2022/06/11 08:40:21;;;;;;;;;10.67;7.67;;;;;23.62;50.28;101822.47;5080386;27;45491;-68
2022/06/11 08:42:55;;;;;;;;;5.00;5.00;;;;;23.66;50.35;101816.97;5107316;27;45519;-70
2022/06/11 08:45:25;;;;;;;;;10.00;9.67;;;;;23.73;50.55;101826.88;5100322;27;46125;-68
2022/06/11 08:47:54;;;;;;;;;6.00;5.00;;;;;23.76;49.91;101815.03;5080903;27;45488;-68
2022/06/11 08:50:27;;;;;;;;;6.67;5.00;;;;;23.78;49.42;101817.75;5100801;27;45305;-65
2022/06/11 08:52:53;;;;;;;;;5.67;4.67;;;;;23.80;49.70;101822.25;5103832;27;45487;-65
2022/06/11 08:55:21;;;;;;;;;6.67;5.67;;;;;23.78;49.59;101817.75;5098209;27;46256;-68
2022/06/11 08:57:53;;;;;;;;;9.00;7.00;;;;;23.76;49.68;101815.03;5097971;27;45430;-66
2022/06/11 09:00:28;;;;;;;;;4.00;3.00;;;;;23.74;49.00;101816.84;5107345;27;45040;-71
2022/06/11 09:03:18;;;;;;;;;3.67;3.67;;;;;23.76;49.21;101812.31;5101233;27;45591;-69
2022/06/11 09:06:02;;;;;;;;;12.00;11.33;;;;;23.76;49.26;101806.84;5112310;27;46100;-68
2022/06/11 09:08:52;;;;;;;;;68.50;52.00;;;;;23.80;49.03;101800.41;5095471;27;45577;-67
2022/06/11 09:11:23;;;;;;;;;11.00;9.33;;;;;23.87;49.05;101806.75;5105849;27;45561;-67
2022/06/11 09:14:17;;;;;;;;;7.67;7.00;;;;;23.97;48.18;101799.34;5096456;27;45685;-63
2022/06/11 09:17:00;;;;;;;;;5.00;3.33;;;;;23.96;48.33;101801.19;5097772;27;45581;-66
2022/06/11 09:19:44;;;;;;;;;6.00;6.00;;;;;23.99;48.65;101795.69;5077617;27;45345;-64
2022/06/11 09:22:36;;;;;;;;;6.33;6.00;;;;;24.06;48.64;101794.66;5099922;27;45499;-67
2022/06/11 09:25:28;;;;;;;;;1.00;1.00;;;;;24.03;48.27;101777.44;5101399;27;45213;-66
2022/06/11 09:28:25;;;;;;;;;7.00;5.33;;;;;24.12;47.95;101795.50;5107739;27;46477;-67
2022/06/11 09:31:23;;;;;;;;;5.67;4.67;;;;;24.14;48.17;101796.38;5122109;27;45301;-69
2022/06/11 09:34:01;;;;;;;;;4.00;4.00;;;;;24.22;47.99;101786.25;5102127;27;45686;-67
2022/06/11 09:36:33;;;;;;;;;6.00;6.00;;;;;24.20;47.98;101769.91;5099170;27;45293;-67
2022/06/11 09:39:04;;;;;;;;;6.33;5.33;;;;;24.39;47.91;101789.69;5101892;27;46042;-67
2022/06/11 09:41:34;;;;;;;;;6.67;5.33;;;;;24.33;47.16;101786.13;5097787;27;45228;-69
2022/06/11 09:44:33;;;;;;;;;7.33;6.00;;;;;24.27;47.53;101790.75;5097671;27;45654;-66
2022/06/11 09:47:11;;;;;;;;;2.67;2.33;;;;;24.24;47.43;101787.19;5097483;27;45460;-65
2022/06/11 09:49:41;;;;;;;;;13.33;11.33;;;;;24.23;47.43;101796.28;5097241;27;45437;-69
2022/06/11 09:52:20;;;;;;;;;4.00;4.00;;;;;24.21;47.22;101785.38;5086797;27;45485;-69
2022/06/11 09:54:53;;;;;;;;;8.00;8.00;;;;;24.35;47.19;101787.00;5100999;27;45266;-70
2022/06/11 09:57:47;;;;;;;;;5.67;4.00;;;;;24.48;47.32;101788.63;5111418;27;45375;-69
2022/06/11 10:00:22;;;;;;;;;5.00;5.00;;;;;24.59;46.62;101800.34;5105505;27;46390;-68
2022/06/11 10:05:28;;;;;;;;;12.00;9.00;;;;;24.61;46.52;101794.84;5097774;27;45525;-66
2022/06/11 10:08:02;;;;;;;;;4.67;3.33;;;;;24.54;46.08;101776.72;5100619;27;45447;-68
2022/06/11 10:10:33;;;;;;;;;5.00;5.00;;;;;24.57;46.24;101787.63;5108455;27;45623;-69
2022/06/11 10:13:05;;;;;;;;;7.00;5.00;;;;;24.47;46.40;101795.03;5097207;27;45601;-69
2022/06/11 10:15:36;;;;;;;;;6.00;3.67;;;;;24.40;46.39;101790.56;5114976;27;45482;-69
2022/06/11 10:18:11;;;;;;;;;9.00;5.33;;;;;24.15;46.61;101751.78;5115561;27;45344;-67
2022/06/11 10:20:45;;;;;;;;;3.33;3.33;;;;;24.18;46.44;101758.09;5115136;27;45487;-67
2022/06/11 10:23:34;;;;;;;;;8.67;6.67;;;;;24.51;45.95;101787.69;5098363;27;45348;-67
2022/06/11 10:26:12;;;;;;;;;4.33;4.33;;;;;24.69;45.99;101792.00;5093634;27;45404;-68
2022/06/11 10:28:52;;;;;;;;;2.00;2.00;;;;;24.80;45.31;101785.44;5110010;27;45486;-69
2022/06/11 10:31:28;;;;;;;;;6.67;5.00;;;;;24.99;45.29;101782.38;5102152;27;45656;-67
2022/06/11 10:34:02;;;;;;;;;7.67;7.67;;;;;25.16;44.92;101788.47;5098752;27;45449;-67
2022/06/11 10:36:34;;;;;;;;;5.00;5.00;;;;;25.30;44.08;101780.03;5097521;27;45353;-68
2022/06/11 10:39:21;;;;;;;;;5.33;5.00;;;;;25.41;43.82;101792.59;5097452;27;45395;-67
2022/06/11 10:41:56;;;;;;;;;3.33;3.33;;;;;25.40;43.71;101758.00;5108889;27;45387;-69
2022/06/11 10:44:31;;;;;;;;;6.33;6.33;;;;;25.54;43.65;101786.88;5113523;27;45628;-66
2022/06/11 10:46:57;;;;;;;;;3.67;3.67;;;;;25.42;43.66;101767.97;5114307;27;45488;-69
2022/06/11 10:49:23;;;;;;;;;5.67;5.67;;;;;25.46;43.47;101785.22;5118170;27;45305;-66
2022/06/11 10:52:14;;;;;;;;;6.67;5.00;;;;;25.41;43.68;101789.88;5118512;27;46467;-64
2022/06/11 10:54:40;;;;;;;;;4.00;4.00;;;;;25.47;43.72;101789.75;5097293;27;45296;-68
2022/06/11 10:57:26;;;;;;;;;6.33;5.67;;;;;25.49;43.32;101780.59;5096293;27;45405;-67
2022/06/11 10:59:56;;;;;;;;;6.67;6.00;;;;;25.51;43.26;101789.69;5112039;27;45323;-70
2022/06/11 11:02:33;;;;;;;;;5.33;5.33;;;;;25.54;43.04;101789.63;5116303;27;46216;-70
2022/06/11 11:05:00;;;;;;;;;6.00;5.00;;;;;25.52;42.83;101777.81;5118275;27;45338;-70
2022/06/11 11:07:39;;;;;;;;;4.00;4.00;;;;;25.42;42.63;101747.91;5100251;27;45309;-67
2022/06/11 11:10:23;;;;;;;;;9.67;8.67;;;;;25.62;42.70;101767.56;5118076;27;45578;-65
2022/06/11 11:12:55;;;;;;;;;6.00;4.67;;;;;25.75;42.19;101771.88;5116346;27;46177;-68
2022/06/11 11:15:26;;;;;;;;;7.33;6.33;;;;;25.83;42.15;101773.53;5116044;27;45407;-63
2022/06/11 11:17:56;;;;;;;;;11.67;11.67;;;;;25.86;42.31;101771.63;5096453;27;45532;-65
2022/06/11 11:20:41;;;;;;;;;11.33;9.00;;;;;25.58;42.08;101721.16;5110355;27;45399;-65
2022/06/11 11:23:09;;;;;;;;;6.00;4.33;;;;;25.87;41.60;101780.75;5115520;27;45447;-68
2022/06/11 11:25:40;;;;;;;;;10.67;6.00;;;;;25.80;41.87;101784.56;5113973;27;45472;-68
2022/06/11 11:28:15;;;;;;;;;9.00;6.00;;;;;25.78;42.05;101772.75;5117559;27;45387;-67
2022/06/11 11:30:40;;;;;;;;;5.33;5.33;;;;;25.67;41.61;101768.41;5118482;27;45461;-65
2022/06/11 11:33:34;;;;;;;;;7.33;6.00;;;;;25.74;42.30;101766.44;5113679;27;46214;-65
2022/06/11 11:36:11;;;;;;;;;9.00;5.00;;;;;25.64;41.95;101742.91;5093891;27;45379;-67
2022/06/11 11:38:36;;;;;;;;;7.33;7.33;;;;;25.80;41.72;101774.50;5109215;27;45672;-65
2022/06/11 11:41:04;;;;;;;;;6.67;5.00;;;;;25.85;41.12;101763.47;5114257;27;45277;-67
2022/06/11 11:43:49;;;;;;;;;4.33;4.33;;;;;25.89;40.90;101762.47;5105459;27;45698;-68
2022/06/11 11:46:21;;;;;;;;;5.67;4.00;;;;;25.79;40.80;101742.59;5101529;27;45306;-68
2022/06/11 11:48:52;;;;;;;;;6.00;6.00;;;;;25.98;40.65;101758.66;5096705;27;45399;-67